createdAt,value
2023-05-20T00:00:11.497Z,16.98
2023-05-20T00:05:34.775Z,16.37
2023-05-20T00:10:47.855Z,15.88
2023-05-20T00:15:53.322Z,16.71
2023-05-20T00:20:56.478Z,19.60
2023-05-20T00:26:00.870Z,19.53
2023-05-20T00:31:04.994Z,18.03
2023-05-20T00:36:08.972Z,17.18
2023-05-20T00:41:12.462Z,16.58
2023-05-20T00:46:15.711Z,16.08
2023-05-20T00:51:19.429Z,16.87
2023-05-20T00:56:23.102Z,19.65
2023-05-20T01:01:26.738Z,19.51
2023-05-20T01:06:30.098Z,18.01
2023-05-20T01:11:39.038Z,17.12
2023-05-20T01:16:44.229Z,16.48
2023-05-20T01:21:48.378Z,15.98
2023-05-20T01:26:52.985Z,16.84
2023-05-20T01:31:59.065Z,19.69
2023-05-20T01:37:04.881Z,19.75
2023-05-20T01:42:10.562Z,18.13
2023-05-20T01:47:13.826Z,17.19
2023-05-20T01:52:17.996Z,16.53
2023-05-20T01:57:22.669Z,16.00
2023-05-20T02:02:26.617Z,16.93
2023-05-20T02:07:29.840Z,19.69
2023-05-20T02:12:33.039Z,19.81
2023-05-20T02:17:36.273Z,18.22
2023-05-20T02:22:39.927Z,17.26
2023-05-20T02:27:43.082Z,16.61
2023-05-20T02:32:46.168Z,17.22
2023-05-20T02:37:49.270Z,19.96
2023-05-20T02:42:52.421Z,19.59
2023-05-20T02:47:55.756Z,18.09
2023-05-20T02:53:01.717Z,17.22
2023-05-20T02:58:05.163Z,16.59
2023-05-20T03:03:10.489Z,17.23
2023-05-20T03:08:13.738Z,19.94
2023-05-20T03:13:16.931Z,19.63
2023-05-20T03:18:20.200Z,18.12
2023-05-20T03:23:23.440Z,17.22
2023-05-20T03:28:26.842Z,16.58
2023-05-20T03:33:30.246Z,17.24
2023-05-20T03:38:34.053Z,19.96
2023-05-20T03:43:37.162Z,19.72
2023-05-20T03:48:41.703Z,18.19
2023-05-20T03:58:29.900Z,16.71
2023-05-20T04:03:33.464Z,17.47
2023-05-20T04:08:39.713Z,20.17
2023-05-20T04:13:43.404Z,19.73
2023-05-20T04:18:48.532Z,18.27
2023-05-20T04:23:51.972Z,17.42
2023-05-20T04:28:59.154Z,16.83
2023-05-20T04:34:04.613Z,17.59
2023-05-20T04:39:08.284Z,20.30
2023-05-20T04:44:11.813Z,19.86
2023-05-20T04:49:15.442Z,18.42
2023-05-20T04:54:20.476Z,17.58
2023-05-20T04:59:23.737Z,16.96
2023-05-20T05:04:27.492Z,17.74
2023-05-20T05:09:31.759Z,20.44
2023-05-20T05:14:36.062Z,20.30
2023-05-20T05:19:39.284Z,18.78
2023-05-20T05:24:43.207Z,17.93
2023-05-20T05:29:46.527Z,17.32
2023-05-20T05:34:49.818Z,18.17
2023-05-20T05:39:53.082Z,20.84
2023-05-20T05:44:56.337Z,21.06
2023-05-20T05:50:03.371Z,19.46
2023-05-20T05:55:10.677Z,18.53
2023-05-20T06:00:14.252Z,17.91
2023-05-20T06:05:22.823Z,18.63
2023-05-20T06:10:29.552Z,21.27
2023-05-20T06:15:32.815Z,21.01
2023-05-20T06:20:36.321Z,19.47
2023-05-20T06:25:39.703Z,18.61
2023-05-20T06:30:43.567Z,18.04
2023-05-20T06:35:47.798Z,18.81
2023-05-20T06:40:51.930Z,21.52
2023-05-20T06:45:55.347Z,21.63
2023-05-20T06:51:11.256Z,20.03
2023-05-20T06:56:15.345Z,19.14
2023-05-20T07:01:18.893Z,18.58
2023-05-20T07:06:23.341Z,20.31
2023-05-20T07:11:26.903Z,22.65
2023-05-20T07:16:32.614Z,22.02
2023-05-20T07:21:36.500Z,20.76
2023-05-20T07:26:55.996Z,20.04
2023-05-20T07:33:29.822Z,19.28
2023-05-20T07:38:33.364Z,20.11
2023-05-20T07:43:39.726Z,22.04
2023-05-20T07:48:43.868Z,20.75
2023-05-20T07:53:47.665Z,19.69
2023-05-20T07:58:55.909Z,19.02
2023-05-20T08:04:01.287Z,19.82
2023-05-20T08:09:05.336Z,22.31
2023-05-20T08:14:10.505Z,22.00
2023-05-20T08:19:16.755Z,20.60
2023-05-20T08:24:23.241Z,19.77
2023-05-20T08:29:26.903Z,20.24
2023-05-20T08:34:30.484Z,22.66
2023-05-20T08:39:33.688Z,21.96
2023-05-20T08:44:37.018Z,20.60
2023-05-20T08:49:40.209Z,19.76
2023-05-20T08:54:49.445Z,20.27
2023-05-20T08:59:52.515Z,22.69
2023-05-20T09:04:55.601Z,22.11
2023-05-20T09:10:00.333Z,20.65
2023-05-20T09:15:08.969Z,19.76
2023-05-20T09:20:12.542Z,20.51
2023-05-20T09:25:23.778Z,22.81
2023-05-20T09:30:27.719Z,21.94
2023-05-20T09:35:31.367Z,20.57
2023-05-20T09:40:37.977Z,20.64
2023-05-20T09:45:41.878Z,22.79
2023-05-20T09:50:45.420Z,21.97
2023-05-20T09:55:49.572Z,20.84
2023-05-20T10:00:54.176Z,20.07
2023-05-20T10:06:05.737Z,20.68
2023-05-20T10:11:20.828Z,23.09
2023-05-20T10:16:46.769Z,22.18
2023-05-20T10:22:12.286Z,21.02
2023-05-20T10:27:18.629Z,20.41
2023-05-20T10:32:26.109Z,21.05
2023-05-20T10:37:33.026Z,22.81
2023-05-20T10:42:36.204Z,21.52
2023-05-20T10:47:58.613Z,20.73
2023-05-20T10:53:29.320Z,21.59
2023-05-20T10:58:39.873Z,23.28
2023-05-20T11:03:45.427Z,22.02
2023-05-20T11:08:48.448Z,21.29
2023-05-20T11:13:57.630Z,20.95
2023-05-20T11:19:01.096Z,21.94
2023-05-20T11:24:04.763Z,24.54
2023-05-20T11:29:08.010Z,25.06
2023-05-20T11:34:11.430Z,23.77
2023-05-20T11:39:15.145Z,22.96
2023-05-20T11:44:20.825Z,22.54
2023-05-20T11:49:24.007Z,22.33
2023-05-20T12:33:28.956Z,24.09
2023-05-20T12:38:32.409Z,24.01
2023-05-20T12:43:37.480Z,24.03
2023-05-20T12:48:42.504Z,24.10
2023-05-20T12:53:46.056Z,24.10
2023-05-20T12:58:49.377Z,24.13
2023-05-20T13:03:53.876Z,24.13
2023-05-20T13:08:57.419Z,24.23
2023-05-20T13:14:00.807Z,24.31
2023-05-20T13:19:04.032Z,24.43
2023-05-20T13:24:07.308Z,24.56
2023-05-20T13:29:10.773Z,24.55
2023-05-20T13:34:14.301Z,24.54
2023-05-20T13:39:17.416Z,24.60
2023-05-20T13:44:22.823Z,24.70
2023-05-20T13:49:26.084Z,24.77
2023-05-20T13:54:30.589Z,24.84
2023-05-20T13:59:33.873Z,24.86
2023-05-20T14:04:39.952Z,24.83
2023-05-20T14:09:43.670Z,24.74
2023-05-20T14:14:46.828Z,24.65
2023-05-20T14:19:50.320Z,24.58
2023-05-20T14:24:53.414Z,24.52
2023-05-20T14:29:56.602Z,24.41
2023-05-20T14:35:00.281Z,24.31
2023-05-20T14:40:05.434Z,24.24
2023-05-20T14:45:08.922Z,24.20
2023-05-20T14:50:12.103Z,24.15
2023-05-20T14:55:15.323Z,24.03
2023-05-20T15:00:18.505Z,23.95
2023-05-20T15:05:21.858Z,23.85
2023-05-20T15:10:24.984Z,23.77
2023-05-20T15:15:28.125Z,23.68
2023-05-20T15:20:31.272Z,23.61
2023-05-20T15:25:34.634Z,23.57
2023-05-20T15:30:38.194Z,23.51
2023-05-20T15:35:41.900Z,23.43
2023-05-20T15:40:45.034Z,23.36
2023-05-20T15:45:59.305Z,23.32
2023-05-20T15:51:03.006Z,23.28
2023-05-20T15:56:06.591Z,23.23
2023-05-20T16:01:09.783Z,23.20
2023-05-20T16:06:13.249Z,23.15
2023-05-20T16:11:16.581Z,23.11
2023-05-20T16:16:19.905Z,23.08
2023-05-20T16:21:25.166Z,23.12
2023-05-20T16:26:31.145Z,23.08
2023-05-20T16:33:28.933Z,23.01
2023-05-20T16:38:34.507Z,22.96
2023-05-20T16:43:37.733Z,22.90
2023-05-20T16:48:41.488Z,22.83
2023-05-20T16:53:44.657Z,22.77
2023-05-20T16:58:48.286Z,22.71
2023-05-20T17:03:52.229Z,22.63
2023-05-20T17:08:55.468Z,22.56
2023-05-20T17:13:58.548Z,22.49
2023-05-20T17:19:02.198Z,22.42
2023-05-20T17:24:05.750Z,22.36
2023-05-20T17:33:31.822Z,22.26
2023-05-20T17:38:35.028Z,22.19
2023-05-20T17:43:38.087Z,22.12
2023-05-20T17:48:41.654Z,22.05
2023-05-20T17:53:44.851Z,21.94
2023-05-20T17:58:48.339Z,21.81
2023-05-20T18:03:51.698Z,21.70
2023-05-20T18:08:59.962Z,21.59
2023-05-20T18:14:03.582Z,21.49
2023-05-20T18:19:06.869Z,21.37
2023-05-20T18:24:11.577Z,21.24
2023-05-20T18:29:14.814Z,21.11
2023-05-20T18:34:17.928Z,21.00
2023-05-20T18:39:24.503Z,20.90
2023-05-20T18:44:27.646Z,20.81
2023-05-20T18:49:30.800Z,20.71
2023-05-20T18:54:34.046Z,20.60
2023-05-20T18:59:37.174Z,20.50
2023-05-20T19:04:40.383Z,20.41
2023-05-20T19:09:43.419Z,20.31
2023-05-20T19:14:46.834Z,20.23
2023-05-20T19:19:50.275Z,21.39
2023-05-20T19:24:53.393Z,24.09
2023-05-20T19:29:56.631Z,23.76
2023-05-20T19:34:59.782Z,22.68
2023-05-20T19:40:03.119Z,22.08
2023-05-20T19:45:07.351Z,21.67
2023-05-20T19:50:10.994Z,21.26
2023-05-20T19:55:14.777Z,20.90
2023-05-20T20:00:18.278Z,20.61
2023-05-20T20:05:23.772Z,20.35
2023-05-20T20:10:27.265Z,20.14
2023-05-20T20:15:31.865Z,19.95
2023-05-20T20:20:39.963Z,19.76
2023-05-20T20:25:44.099Z,20.89
2023-05-20T20:30:47.228Z,23.55
2023-05-20T20:35:54.566Z,23.22
2023-05-20T20:40:59.510Z,21.96
2023-05-20T20:46:02.707Z,21.21
2023-05-20T20:51:05.776Z,20.68
2023-05-20T20:56:10.004Z,20.26
2023-05-20T21:01:17.721Z,19.89
2023-05-20T21:06:21.353Z,19.59
2023-05-20T21:11:28.298Z,19.32
2023-05-20T21:16:32.092Z,20.24
2023-05-20T21:21:36.737Z,22.95
2023-05-20T21:26:39.940Z,22.65
2023-05-20T21:31:43.047Z,21.42
2023-05-20T21:36:46.121Z,20.75
2023-05-20T21:41:49.316Z,20.26
2023-05-20T21:46:52.684Z,19.82
2023-05-20T21:51:55.868Z,19.44
2023-05-20T21:56:58.926Z,20.38
2023-05-20T22:02:02.326Z,23.00
2023-05-20T22:07:05.808Z,22.68
2023-05-20T22:12:11.250Z,21.45
2023-05-20T22:17:14.808Z,20.74
2023-05-20T22:22:17.982Z,20.22
2023-05-20T22:27:21.562Z,19.79
2023-05-20T22:32:24.783Z,19.43
2023-05-20T22:37:29.004Z,20.34
2023-05-20T22:42:32.231Z,22.92
2023-05-20T22:47:35.324Z,22.33
2023-05-20T22:52:38.374Z,21.12
2023-05-20T22:57:43.708Z,20.40
2023-05-20T23:02:50.121Z,19.84
2023-05-20T23:07:53.797Z,19.38
2023-05-20T23:12:57.106Z,20.27
2023-05-20T23:18:00.490Z,22.91
2023-05-20T23:23:10.971Z,23.10
2023-05-20T23:28:14.759Z,21.62
2023-05-20T23:33:22.910Z,20.76
2023-05-20T23:38:28.452Z,20.12
2023-05-20T23:43:31.738Z,19.62
2023-05-20T23:48:36.132Z,20.50
2023-05-20T23:53:41.133Z,23.11
2023-05-20T23:58:44.332Z,23.12
